TFM - Tactical Decision Aid
ID: Runway Winds: CIG/VIS Threshold:

KMAF - Midland Intl, TX, US

Updated at: 1354 UTC 26 Feb 2021
Latest TAF at: 1203 UTC 26 Feb 2021

TAF Board

Time1253Z 26/14Z 26/15Z 26/16Z 26/17Z 26/18Z 26/19Z 26/20Z 26/21Z 26/22Z 26/23Z 27/00Z 27/01Z 27/02Z>>
Type OBS PRVL PRVL PRVL PRVL PRVL PRVL PRVL PRVL PRVL PRVL PRVL PRVL PRVL
VIS 10 >6 >6 >6 >6 >6 >6 >6 >6 >6 >6 >6 >6 >6
CIG -- -- -- -- -- -- -- -- -- -- -- -- -- --
Cover CLR SCT SCT SCT SCT SCT SCT SCT SCT SCT SCT SCT SCT SCT
FltCat VFR VFR VFR VFR VFR VFR VFR VFR VFR VFR VFR VFR VFR VFR
WX -- -- -- -- -- -- -- -- -- -- -- -- -- --
WDir 220 230 230 230 230 230 230 230 230 230 230 230 230 230
WSpd 5 9 9 9 9 9 9 9 9 9 9 9 9 9
WGst -- -- -- -- -- -- -- -- -- -- -- -- -- --

TDA Impact Legend

  None Marginal Slight Moderate High
Visibility (sm) >5 3≤X≤5 2≤X<3 0.5≤X<2 <0.5
Ceiling (100 ft) >30 10≤X≤30 6≤X<10 2≤X<6 <2
Wind Speed (kt) <15 15≤X<25 25≤X<30 ≥30
Wind Gust (kt) <15 15≤X<25 25≤X<35 ≥35
Weather No Wx Reported VCTS -TS,-FZRA TS,FZRA +TS,+FZRA
TAF
KMAF 261203Z 2612/2712 23009KT P6SM SCT250

METAR
KMAF 261253Z 22005KT 10SM CLR 01/M02 A2999 RMK AO2 SLP148 T00111022
KMAF 261153Z 26003KT 10SM FEW013 01/M03 A2999 RMK AO2 SLP149 T00061028 10050 20006 56010
KMAF 261053Z AUTO 20003KT 10SM OVC014 04/M01 A2999 RMK AO2 SLP145 T00391011

Radar Display
Forecast Discussion